createdAt,value
2018-09-23T00:02:13.428Z,1.90
2018-09-23T00:04:43.660Z,1.60
2018-09-23T00:07:13.869Z,2.20
2018-09-23T00:09:44.343Z,1.90
2018-09-23T00:12:14.947Z,1.70
2018-09-23T00:14:45.754Z,1.57
2018-09-23T00:17:16.448Z,1.50
2018-09-23T00:19:47.900Z,1.10
2018-09-23T00:22:18.434Z,1.70
2018-09-23T00:27:44.148Z,1.27
2018-09-23T00:30:14.737Z,1.30
2018-09-23T00:32:45.240Z,1.20
2018-09-23T00:35:15.745Z,1.70
2018-09-23T00:37:46.284Z,1.40
2018-09-23T00:40:16.804Z,1.50
2018-09-23T00:42:47.369Z,0.93
2018-09-23T00:45:17.608Z,1.10
2018-09-23T00:47:47.831Z,1.50
2018-09-23T00:50:18.330Z,1.77
2018-09-23T00:52:48.808Z,1.50
2018-09-23T00:55:19.026Z,1.37
2018-09-23T00:57:49.496Z,1.53
2018-09-23T01:00:20.214Z,1.80
2018-09-23T01:02:50.705Z,1.10
2018-09-23T01:05:21.217Z,1.43
2018-09-23T01:07:51.432Z,1.27
2018-09-23T01:10:21.664Z,1.60
2018-09-23T01:12:52.435Z,1.17
2018-09-23T01:15:23.031Z,1.33
2018-09-23T01:17:53.493Z,1.30
2018-09-23T01:20:24.397Z,1.27
2018-09-23T01:22:54.899Z,1.17
2018-09-23T01:25:25.411Z,1.27
2018-09-23T01:27:55.637Z,1.40
2018-09-23T01:30:26.180Z,1.20
2018-09-23T01:32:56.408Z,1.43
2018-09-23T01:35:26.980Z,1.80
2018-09-23T01:37:57.210Z,1.80
2018-09-23T01:40:28.136Z,1.47
2018-09-23T01:42:58.855Z,0.87
2018-09-23T01:45:29.526Z,1.53
2018-09-23T01:47:59.727Z,1.40
2018-09-23T01:50:30.582Z,2.00
2018-09-23T01:53:00.780Z,1.47
2018-09-23T01:55:31.271Z,1.93
2018-09-23T01:58:01.474Z,1.47
2018-09-23T02:00:32.068Z,1.30
2018-09-23T02:03:03.619Z,1.30
2018-09-23T02:05:34.364Z,1.30
2018-09-23T02:08:04.841Z,1.27
2018-09-23T02:10:35.384Z,1.43
2018-09-23T02:13:05.630Z,1.17
2018-09-23T02:15:36.372Z,1.17
2018-09-23T02:18:07.195Z,1.20
2018-09-23T02:20:37.944Z,0.93
2018-09-23T02:23:08.788Z,1.00
2018-09-23T02:25:39.304Z,1.03
2018-09-23T02:28:09.828Z,1.50
2018-09-23T02:30:40.208Z,1.77
2018-09-23T02:33:10.899Z,1.00
2018-09-23T02:35:41.843Z,1.27
2018-09-23T02:38:12.335Z,1.00
2018-09-23T02:40:42.555Z,0.97
2018-09-23T02:43:13.153Z,1.50
2018-09-23T02:45:45.073Z,1.07
2018-09-23T02:48:15.894Z,1.30
2018-09-23T02:50:46.697Z,0.93
2018-09-23T02:53:17.362Z,1.20
2018-09-23T02:55:48.121Z,0.97
2018-09-23T02:58:18.655Z,1.37
2018-09-23T03:00:49.352Z,1.00
2018-09-23T03:03:21.968Z,1.50
2018-09-23T03:05:53.449Z,1.57
2018-09-23T03:08:23.973Z,1.23
2018-09-23T03:10:54.221Z,1.30
2018-09-23T03:13:24.709Z,0.90
2018-09-23T03:15:55.432Z,1.20
2018-09-23T03:18:26.065Z,0.80
2018-09-23T03:20:56.598Z,1.13
2018-09-23T03:23:27.072Z,1.17
2018-09-23T03:25:58.164Z,1.07
2018-09-23T03:28:28.684Z,1.47
2018-09-23T03:30:59.309Z,1.17
2018-09-23T03:33:29.737Z,1.50
2018-09-23T03:36:00.239Z,1.30
2018-09-23T03:38:30.506Z,1.33
2018-09-23T03:41:01.803Z,1.63
2018-09-23T03:43:32.492Z,1.00
2018-09-23T03:46:03.172Z,1.40
2018-09-23T03:48:33.855Z,1.17
2018-09-23T03:51:04.376Z,1.27
2018-09-23T03:53:34.963Z,1.00
2018-09-23T03:56:05.487Z,1.40
2018-09-23T03:58:35.888Z,1.03
2018-09-23T04:01:06.656Z,1.37
2018-09-23T04:03:37.976Z,1.30
2018-09-23T04:06:08.564Z,1.13
2018-09-23T04:08:39.037Z,1.30
2018-09-23T04:11:09.674Z,1.30
2018-09-23T04:13:39.946Z,1.80
2018-09-23T04:16:11.149Z,1.17
2018-09-23T04:18:41.370Z,1.23
2018-09-23T04:21:14.877Z,0.80
2018-09-23T04:23:45.406Z,1.03
2018-09-23T04:26:15.950Z,1.17
2018-09-23T04:28:46.161Z,0.90
2018-09-23T04:31:17.151Z,1.13
2018-09-23T04:33:47.371Z,0.90
2018-09-23T04:36:17.799Z,1.50
2018-09-23T04:38:50.646Z,1.03
2018-09-23T04:41:20.828Z,1.20
2018-09-23T04:43:51.316Z,0.93
2018-09-23T04:46:21.538Z,0.77
2018-09-23T04:48:51.956Z,1.20
2018-09-23T04:51:22.436Z,1.10
2018-09-23T04:53:53.096Z,0.87
2018-09-23T04:56:23.575Z,1.07
2018-09-23T04:58:54.078Z,1.00
2018-09-23T05:01:24.753Z,0.90
2018-09-23T05:03:55.230Z,1.23
2018-09-23T05:06:25.802Z,0.73
2018-09-23T05:08:56.345Z,1.00
2018-09-23T05:11:26.870Z,1.13
2018-09-23T05:13:57.330Z,1.00
2018-09-23T05:16:28.264Z,0.80
2018-09-23T05:18:58.613Z,1.67
2018-09-23T05:21:28.905Z,0.83
2018-09-23T05:23:59.467Z,1.23
2018-09-23T05:26:30.369Z,1.10
2018-09-23T05:29:00.576Z,1.33
2018-09-23T05:31:30.800Z,1.20
2018-09-23T05:34:01.028Z,1.17
2018-09-23T05:36:31.571Z,1.40
2018-09-23T05:39:02.687Z,0.93
2018-09-23T05:41:33.223Z,0.90
2018-09-23T05:44:04.042Z,0.90
2018-09-23T05:46:34.984Z,1.10
2018-09-23T05:49:05.760Z,0.90
2018-09-23T05:51:36.267Z,1.20
2018-09-23T05:54:06.767Z,1.20
2018-09-23T05:56:43.469Z,0.70
2018-09-23T05:59:13.983Z,1.20
2018-09-23T06:01:44.493Z,0.93
2018-09-23T06:04:14.682Z,0.90
2018-09-23T06:06:45.458Z,1.10
2018-09-23T06:09:15.668Z,1.13
2018-09-23T06:11:46.085Z,1.10
2018-09-23T06:14:16.290Z,0.90
2018-09-23T06:16:47.095Z,1.10
2018-09-23T06:19:17.871Z,0.83
2018-09-23T06:21:48.544Z,0.63
2018-09-23T06:24:18.838Z,1.20
2018-09-23T06:26:49.301Z,1.20
2018-09-23T06:29:19.811Z,1.13
2018-09-23T06:31:50.856Z,1.20
2018-09-23T06:34:21.089Z,1.10
2018-09-23T06:36:51.712Z,1.20
2018-09-23T06:39:22.168Z,1.20
2018-09-23T06:41:52.642Z,1.13
2018-09-23T06:44:22.940Z,1.23
2018-09-23T06:46:53.455Z,1.00
2018-09-23T06:49:24.338Z,1.13
2018-09-23T06:51:55.592Z,1.23
2018-09-23T06:54:25.951Z,0.80
2018-09-23T06:56:56.235Z,1.30
2018-09-23T06:59:27.078Z,1.20
2018-09-23T07:01:57.571Z,1.40
2018-09-23T07:04:28.070Z,0.97
2018-09-23T07:06:58.556Z,1.10
2018-09-23T07:09:29.146Z,1.23
2018-09-23T07:12:00.004Z,1.00
2018-09-23T07:14:30.280Z,1.40
2018-09-23T07:17:00.788Z,1.47
2018-09-23T07:19:31.286Z,1.00
2018-09-23T07:22:01.908Z,1.03
2018-09-23T07:24:32.119Z,1.53
2018-09-23T07:27:02.564Z,1.23
2018-09-23T07:29:32.813Z,1.07
2018-09-23T07:32:03.625Z,1.30
2018-09-23T07:34:34.245Z,1.73
2018-09-23T07:37:04.785Z,1.50
2018-09-23T07:39:35.223Z,1.80
2018-09-23T07:42:06.341Z,2.00
2018-09-23T07:44:36.875Z,1.90
2018-09-23T07:47:07.369Z,1.93
2018-09-23T07:49:37.890Z,2.40
2018-09-23T07:52:08.945Z,2.00
2018-09-23T07:54:39.497Z,2.10
2018-09-23T07:57:09.757Z,3.40
2018-09-23T07:59:40.368Z,11.10
2018-09-23T08:02:10.880Z,1.67
2018-09-23T08:04:41.191Z,2.00
2018-09-23T08:07:11.524Z,2.17
2018-09-23T08:09:42.172Z,1.30
2018-09-23T08:12:12.415Z,1.57
2018-09-23T08:14:43.327Z,1.60
2018-09-23T08:17:16.243Z,1.83
2018-09-23T08:19:46.999Z,2.63
2018-09-23T08:22:17.629Z,1.63
2018-09-23T08:24:48.394Z,1.87
2018-09-23T08:27:19.368Z,1.80
2018-09-23T08:29:49.936Z,2.40
2018-09-23T08:32:20.348Z,1.43
2018-09-23T08:34:51.155Z,1.60
2018-09-23T08:37:21.694Z,1.70
2018-09-23T08:39:53.348Z,2.23
2018-09-23T08:42:23.988Z,1.57
2018-09-23T08:44:54.518Z,1.40
2018-09-23T08:47:25.021Z,1.97
2018-09-23T08:49:55.258Z,1.50
2018-09-23T08:52:25.777Z,1.77
2018-09-23T08:54:56.278Z,1.67
2018-09-23T08:57:27.132Z,2.37
2018-09-23T08:59:57.421Z,1.70
2018-09-23T09:02:28.204Z,1.90
2018-09-23T09:04:58.760Z,1.77
2018-09-23T09:07:29.050Z,2.50
2018-09-23T09:09:59.527Z,1.70
2018-09-23T09:12:30.033Z,1.60
2018-09-23T09:15:00.237Z,1.63
2018-09-23T09:17:30.984Z,1.80
2018-09-23T09:20:01.618Z,2.20
2018-09-23T09:22:32.193Z,2.53
2018-09-23T09:25:03.235Z,1.97
2018-09-23T09:27:33.810Z,1.80
2018-09-23T09:30:04.811Z,1.70
2018-09-23T09:32:35.934Z,1.87
2018-09-23T09:35:06.993Z,2.50
2018-09-23T09:37:37.464Z,2.07
2018-09-23T09:40:08.912Z,2.13
2018-09-23T09:42:39.508Z,1.57
2018-09-23T09:45:13.165Z,1.90
2018-09-23T09:47:43.895Z,1.83
2018-09-23T09:50:14.401Z,1.67
2018-09-23T09:52:44.893Z,2.00
2018-09-23T09:55:15.441Z,2.00
2018-09-23T09:57:46.015Z,1.90
2018-09-23T10:00:20.700Z,1.90
2018-09-23T10:02:51.210Z,2.37
2018-09-23T10:05:21.656Z,1.93
2018-09-23T10:07:52.396Z,2.30
2018-09-23T10:10:23.729Z,2.00
2018-09-23T10:12:54.201Z,1.80
2018-09-23T10:15:24.707Z,2.27
2018-09-23T10:17:55.469Z,2.07
2018-09-23T10:20:26.020Z,2.10
2018-09-23T10:22:56.591Z,2.60
2018-09-23T10:25:27.393Z,2.50
2018-09-23T10:27:57.625Z,2.77
2018-09-23T10:30:28.444Z,1.50
2018-09-23T10:32:58.648Z,1.67
2018-09-23T10:35:29.194Z,1.93
2018-09-23T10:37:59.774Z,1.77
2018-09-23T10:40:30.268Z,2.20
2018-09-23T10:43:00.776Z,2.13
2018-09-23T10:45:30.988Z,2.37
2018-09-23T10:48:01.223Z,2.17
2018-09-23T10:50:31.761Z,2.40
2018-09-23T10:53:02.356Z,2.37
2018-09-23T10:55:33.095Z,3.40
2018-09-23T10:58:03.488Z,2.93
2018-09-23T11:00:34.223Z,2.40
2018-09-23T11:03:04.829Z,3.03
2018-09-23T11:05:35.579Z,2.70
2018-09-23T11:08:06.726Z,2.83
2018-09-23T11:10:37.251Z,3.00
2018-09-23T11:13:07.785Z,2.20
2018-09-23T11:15:38.297Z,2.10
2018-09-23T11:18:09.129Z,2.37
2018-09-23T11:20:39.735Z,2.03
2018-09-23T11:23:10.290Z,2.33
2018-09-23T11:25:40.912Z,1.83
2018-09-23T11:28:11.224Z,2.80
2018-09-23T11:30:41.515Z,2.83
2018-09-23T11:33:13.893Z,2.03
2018-09-23T11:35:44.823Z,2.60
2018-09-23T11:38:15.315Z,2.17
2018-09-23T11:40:45.839Z,2.00
2018-09-23T11:43:16.388Z,2.37
2018-09-23T11:45:47.140Z,2.10
2018-09-23T11:48:17.701Z,2.13
2018-09-23T11:50:48.640Z,2.60
2018-09-23T11:53:18.853Z,2.67
2018-09-23T11:55:49.413Z,2.50
2018-09-23T11:58:20.044Z,2.30
2018-09-23T12:00:50.600Z,3.37
2018-09-23T12:03:21.208Z,2.50
2018-09-23T12:05:51.648Z,2.77
2018-09-23T12:08:22.190Z,2.40
2018-09-23T12:10:52.574Z,2.40
2018-09-23T12:13:22.914Z,2.67
2018-09-23T12:15:53.436Z,2.40
2018-09-23T12:18:24.085Z,2.63
2018-09-23T12:20:54.540Z,2.37
2018-09-23T12:23:25.069Z,3.50
2018-09-23T12:25:55.599Z,3.90
2018-09-23T12:28:26.044Z,3.07
2018-09-23T12:30:56.240Z,3.00
2018-09-23T12:33:26.862Z,2.73
2018-09-23T12:36:05.336Z,2.90
2018-09-23T12:38:35.639Z,3.30
2018-09-23T12:41:06.725Z,3.50
2018-09-23T12:43:36.994Z,2.57
2018-09-23T12:46:07.703Z,2.33
2018-09-23T12:48:38.134Z,2.40
2018-09-23T12:51:11.984Z,2.40
2018-09-23T12:53:42.470Z,2.27
2018-09-23T12:56:12.718Z,2.40
2018-09-23T12:58:43.620Z,1.90
2018-09-23T13:01:14.341Z,2.33
2018-09-23T13:03:44.897Z,2.40
2018-09-23T13:06:15.396Z,2.93
2018-09-23T13:08:45.948Z,2.60
2018-09-23T13:11:16.464Z,2.50
2018-09-23T13:13:46.732Z,3.17
2018-09-23T13:16:17.203Z,2.60
2018-09-23T13:18:47.508Z,3.07
2018-09-23T13:21:18.497Z,2.87
2018-09-23T13:23:49.272Z,2.93
2018-09-23T13:26:19.989Z,2.90
2018-09-23T13:28:50.639Z,2.53
2018-09-23T13:31:21.403Z,3.97
2018-09-23T13:33:52.159Z,3.90
2018-09-23T13:36:22.589Z,3.43
2018-09-23T13:38:52.932Z,3.80
2018-09-23T13:41:24.254Z,3.03
2018-09-23T13:43:55.021Z,4.20
2018-09-23T13:46:25.551Z,3.20
2018-09-23T13:48:56.292Z,2.43
2018-09-23T13:51:26.808Z,3.37
2018-09-23T13:53:57.016Z,3.83
2018-09-23T13:56:27.559Z,4.37
2018-09-23T13:58:58.034Z,3.60
2018-09-23T14:01:28.380Z,3.17
2018-09-23T14:03:58.812Z,3.43
2018-09-23T14:06:29.057Z,3.03
2018-09-23T14:08:59.276Z,3.40
2018-09-23T14:11:30.001Z,3.03
2018-09-23T14:14:00.431Z,3.27
2018-09-23T14:16:30.648Z,2.80
2018-09-23T14:19:01.097Z,3.87
2018-09-23T14:21:31.429Z,3.50
2018-09-23T14:24:01.651Z,3.23
2018-09-23T14:26:32.162Z,3.07
2018-09-23T14:29:02.644Z,3.57
2018-09-23T14:31:33.753Z,4.20
2018-09-23T14:34:04.525Z,4.90
2018-09-23T14:36:35.380Z,3.53
2018-09-23T14:39:08.772Z,3.60
2018-09-23T14:41:39.400Z,3.70
2018-09-23T14:44:10.094Z,3.40
2018-09-23T14:46:40.582Z,2.90
2018-09-23T14:49:11.421Z,3.40
2018-09-23T14:51:41.928Z,3.53
2018-09-23T14:54:12.567Z,3.37
2018-09-23T14:56:43.361Z,3.03
2018-09-23T14:59:14.244Z,2.73
2018-09-23T15:01:44.815Z,3.00
2018-09-23T15:04:15.532Z,2.87
2018-09-23T15:06:47.056Z,2.70
2018-09-23T15:09:17.829Z,2.47
2018-09-23T15:11:48.725Z,2.70
2018-09-23T15:14:19.500Z,2.63
2018-09-23T15:16:50.029Z,2.83
2018-09-23T15:19:20.639Z,2.90
2018-09-23T15:21:51.165Z,2.47
2018-09-23T15:24:21.624Z,2.10
2018-09-23T15:26:52.224Z,2.60
2018-09-23T15:29:22.762Z,2.87
2018-09-23T15:31:53.269Z,2.27
2018-09-23T15:34:23.458Z,2.40
2018-09-23T15:36:54.015Z,2.30
2018-09-23T15:39:24.599Z,3.00
2018-09-23T15:41:55.287Z,2.23
2018-09-23T15:44:27.352Z,2.60
2018-09-23T15:46:58.599Z,4.40
2018-09-23T15:49:29.168Z,2.30
2018-09-23T15:52:00.155Z,2.97
2018-09-23T15:54:30.586Z,3.43
2018-09-23T15:57:05.637Z,3.43
2018-09-23T15:59:36.195Z,3.40
2018-09-23T16:02:07.791Z,3.03
2018-09-23T16:04:38.368Z,2.87
2018-09-23T16:07:10.123Z,3.13
2018-09-23T16:09:40.991Z,3.07
2018-09-23T16:12:11.892Z,3.77
2018-09-23T16:14:42.214Z,3.47
2018-09-23T16:17:13.776Z,3.50
2018-09-23T16:19:44.597Z,3.37
2018-09-23T16:22:19.678Z,5.20
2018-09-23T16:24:50.080Z,4.90
2018-09-23T16:27:20.804Z,3.87
2018-09-23T16:29:52.504Z,3.90
2018-09-23T16:32:22.943Z,3.57
2018-09-23T16:34:53.700Z,3.67
2018-09-23T16:37:24.687Z,3.30
2018-09-23T16:39:56.167Z,3.37
2018-09-23T16:42:26.805Z,3.10
2018-09-23T16:44:57.332Z,3.17
2018-09-23T16:47:28.499Z,3.77
2018-09-23T16:49:59.070Z,3.63
2018-09-23T16:52:29.400Z,3.00
2018-09-23T16:55:01.305Z,2.83
2018-09-23T16:57:31.717Z,3.40
2018-09-23T17:00:02.049Z,3.50
2018-09-23T17:02:32.732Z,2.93
2018-09-23T17:05:03.235Z,3.13
2018-09-23T17:07:34.267Z,3.30
2018-09-23T17:10:04.817Z,4.00
2018-09-23T17:12:35.636Z,3.90
2018-09-23T17:15:06.154Z,4.17
2018-09-23T17:17:37.291Z,3.50
2018-09-23T17:20:07.856Z,3.87
2018-09-23T17:22:38.343Z,4.53
2018-09-23T17:25:10.192Z,3.73
2018-09-23T17:27:40.484Z,3.67
2018-09-23T17:30:11.101Z,3.80
2018-09-23T17:32:43.270Z,3.60
2018-09-23T17:35:13.912Z,4.10
2018-09-23T17:37:44.280Z,3.60
2018-09-23T17:40:15.272Z,3.13
2018-09-23T17:42:46.004Z,7.70
2018-09-23T17:45:16.248Z,3.90
2018-09-23T17:47:47.331Z,3.67
2018-09-23T17:50:17.881Z,3.30
2018-09-23T17:52:48.920Z,3.70
2018-09-23T17:55:19.221Z,3.60
2018-09-23T17:57:49.782Z,3.40
2018-09-23T18:00:20.305Z,3.47
2018-09-23T18:02:50.925Z,4.00
2018-09-23T18:05:21.131Z,3.30
2018-09-23T18:07:51.400Z,3.10
2018-09-23T18:10:21.964Z,7.23
2018-09-23T18:12:52.319Z,4.37
2018-09-23T18:15:22.559Z,3.90
2018-09-23T18:17:53.123Z,4.17
2018-09-23T18:20:23.904Z,4.07
2018-09-23T18:22:54.367Z,3.30
2018-09-23T18:25:24.886Z,3.87
2018-09-23T18:27:55.084Z,3.87
2018-09-23T18:30:25.559Z,3.03
2018-09-23T18:32:55.780Z,3.03
2018-09-23T18:35:26.846Z,3.07
2018-09-23T18:37:57.509Z,3.30
2018-09-23T18:40:27.971Z,3.70
2018-09-23T18:42:58.185Z,3.90
2018-09-23T18:45:29.365Z,3.67
2018-09-23T18:48:00.201Z,4.30
2018-09-23T18:50:30.448Z,3.77
2018-09-23T18:53:07.136Z,3.90
2018-09-23T18:55:39.854Z,4.10
2018-09-23T18:58:10.444Z,3.90
2018-09-23T19:00:41.222Z,4.37
2018-09-23T19:03:11.760Z,4.13
2018-09-23T19:05:42.447Z,5.60
2018-09-23T19:08:13.056Z,5.43
2018-09-23T19:10:43.774Z,5.63
2018-09-23T19:13:19.823Z,5.20
2018-09-23T19:15:55.758Z,5.33
2018-09-23T19:18:26.383Z,5.00
2018-09-23T19:20:56.967Z,6.20
2018-09-23T19:23:27.619Z,5.27
2018-09-23T19:25:58.541Z,5.10
2018-09-23T19:28:28.796Z,4.87
2018-09-23T19:30:59.369Z,4.80
2018-09-23T19:33:29.840Z,5.53
2018-09-23T19:36:00.397Z,5.63
2018-09-23T19:38:31.085Z,5.87
2018-09-23T19:41:01.587Z,5.10
2018-09-23T19:43:32.187Z,6.10
2018-09-23T19:46:03.796Z,6.40
2018-09-23T19:48:34.395Z,6.30
2018-09-23T19:51:04.904Z,5.90
2018-09-23T19:53:35.481Z,5.43
2018-09-23T19:56:05.823Z,5.40
2018-09-23T19:58:36.432Z,6.50
2018-09-23T20:01:06.976Z,5.60
2018-09-23T20:03:37.920Z,5.00
2018-09-23T20:06:08.392Z,5.73
2018-09-23T20:08:39.847Z,5.67
2018-09-23T20:11:10.613Z,5.80
2018-09-23T20:13:41.133Z,5.97
2018-09-23T20:16:12.031Z,5.30
2018-09-23T20:18:43.497Z,5.07
2018-09-23T20:21:14.056Z,5.53
2018-09-23T20:23:44.613Z,6.13
2018-09-23T20:26:15.412Z,4.80
2018-09-23T20:28:45.888Z,5.83
2018-09-23T20:31:16.639Z,6.37
2018-09-23T20:33:48.887Z,5.90
2018-09-23T20:36:19.276Z,6.97
2018-09-23T20:38:49.931Z,6.67
2018-09-23T20:41:20.836Z,6.50
2018-09-23T20:43:51.450Z,6.87
2018-09-23T20:46:22.553Z,6.20
2018-09-23T20:48:53.121Z,6.80
2018-09-23T20:51:24.519Z,6.60
2018-09-23T20:53:54.984Z,6.17
2018-09-23T20:56:25.640Z,6.70
2018-09-23T20:58:56.202Z,6.90
2018-09-23T21:01:26.945Z,6.43
2018-09-23T21:03:57.432Z,6.30
2018-09-23T21:06:28.245Z,6.43
2018-09-23T21:08:59.308Z,5.60
2018-09-23T21:11:30.091Z,4.77
2018-09-23T21:14:00.589Z,4.50
2018-09-23T21:16:31.079Z,3.10
2018-09-23T21:19:01.329Z,1.53
2018-09-23T21:21:31.561Z,1.80
2018-09-23T21:24:02.165Z,1.70
2018-09-23T21:26:32.936Z,1.30
2018-09-23T21:29:03.447Z,1.37
2018-09-23T21:31:38.026Z,1.30
2018-09-23T21:34:08.628Z,1.17
2018-09-23T21:36:39.893Z,1.33
2018-09-23T21:39:11.372Z,1.43
2018-09-23T21:41:41.968Z,1.40
2018-09-23T21:44:12.483Z,1.40
2018-09-23T21:46:43.177Z,1.80
2018-09-23T21:49:14.080Z,1.40
2018-09-23T21:51:45.251Z,1.30
2018-09-23T21:54:15.717Z,1.50
2018-09-23T21:56:47.205Z,1.13
2018-09-23T21:59:17.756Z,0.70
2018-09-23T22:01:48.357Z,0.80
2018-09-23T22:04:18.792Z,0.90
2018-09-23T22:06:49.197Z,0.73
2018-09-23T22:09:21.256Z,1.03
2018-09-23T22:11:51.689Z,0.80
2018-09-23T22:14:22.211Z,0.90
2018-09-23T22:16:52.569Z,1.00
2018-09-23T22:19:23.485Z,1.00
2018-09-23T22:21:54.197Z,1.30
2018-09-23T22:24:24.814Z,1.47
2018-09-23T22:26:55.160Z,1.43
2018-09-23T22:29:25.667Z,1.23
2018-09-23T22:31:56.057Z,1.17
2018-09-23T22:34:26.616Z,0.80
2018-09-23T22:36:56.853Z,0.70
2018-09-23T22:39:27.353Z,0.70
2018-09-23T22:41:59.091Z,0.50
2018-09-23T22:44:29.484Z,0.40
2018-09-23T22:46:59.696Z,0.67
2018-09-23T22:49:30.229Z,0.47
2018-09-23T22:52:00.454Z,0.50
2018-09-23T22:54:31.086Z,0.47
2018-09-23T22:57:01.571Z,0.40
2018-09-23T22:59:32.041Z,0.40
2018-09-23T23:02:02.596Z,0.50
2018-09-23T23:04:33.107Z,0.50
2018-09-23T23:07:03.584Z,0.50
2018-09-23T23:09:34.709Z,0.30
2018-09-23T23:12:05.186Z,0.40
2018-09-23T23:14:36.138Z,0.60
2018-09-23T23:17:07.123Z,0.40
2018-09-23T23:19:38.406Z,0.50
2018-09-23T23:22:09.287Z,0.50
2018-09-23T23:24:39.943Z,0.43
2018-09-23T23:27:10.295Z,0.60
2018-09-23T23:29:41.028Z,0.40
2018-09-23T23:32:12.009Z,0.40
2018-09-23T23:34:42.257Z,0.50
2018-09-23T23:37:12.781Z,0.50
2018-09-23T23:39:43.355Z,0.47
2018-09-23T23:42:13.836Z,0.50
2018-09-23T23:44:44.350Z,0.40
2018-09-23T23:47:14.852Z,0.50
2018-09-23T23:49:45.738Z,0.40
2018-09-23T23:52:16.202Z,0.50
2018-09-23T23:54:46.847Z,0.50
2018-09-23T23:57:17.408Z,0.50
2018-09-23T23:59:47.912Z,0.37
